createdAt,value
2018-12-08T00:01:51.736Z,8.90
2018-12-08T00:04:20.507Z,8.80
2018-12-08T00:06:49.321Z,8.90
2018-12-08T00:09:18.239Z,8.80
2018-12-08T00:11:48.488Z,8.70
2018-12-08T00:14:18.153Z,8.80
2018-12-08T00:16:47.214Z,8.60
2018-12-08T00:19:16.325Z,8.60
2018-12-08T00:21:45.642Z,8.50
2018-12-08T00:24:14.396Z,8.60
2018-12-08T00:26:44.214Z,8.60
2018-12-08T00:29:12.918Z,8.50
2018-12-08T00:31:47.227Z,8.40
2018-12-08T00:34:16.078Z,8.30
2018-12-08T00:36:46.069Z,8.40
2018-12-08T00:39:14.806Z,8.40
2018-12-08T00:41:43.463Z,8.50
2018-12-08T00:44:12.992Z,8.60
2018-12-08T00:46:41.751Z,8.70
2018-12-08T00:49:10.509Z,8.80
2018-12-08T00:52:42.584Z,8.70
2018-12-08T00:55:11.468Z,8.70
2018-12-08T00:57:40.434Z,8.60
2018-12-08T01:00:09.569Z,8.50
2018-12-08T01:02:38.474Z,8.50
2018-12-08T01:05:07.306Z,8.50
2018-12-08T01:07:36.051Z,8.40
2018-12-08T01:10:05.279Z,8.50
2018-12-08T01:12:34.074Z,8.50
2018-12-08T01:15:03.010Z,8.50
2018-12-08T01:17:32.015Z,8.60
2018-12-08T01:20:00.867Z,8.60
2018-12-08T01:22:29.639Z,8.50
2018-12-08T01:24:58.416Z,8.60
2018-12-08T01:27:27.059Z,8.60
2018-12-08T01:29:55.837Z,8.60
2018-12-08T01:32:25.495Z,8.60
2018-12-08T01:34:54.163Z,8.70
2018-12-08T01:37:23.236Z,8.80
2018-12-08T01:39:52.030Z,8.80
2018-12-08T01:42:21.747Z,8.80
2018-12-08T01:44:51.037Z,8.80
2018-12-08T01:47:20.700Z,8.90
2018-12-08T01:49:49.773Z,8.80
2018-12-08T01:52:19.393Z,8.80
2018-12-08T01:54:48.209Z,8.80
2018-12-08T01:57:17.055Z,8.80
2018-12-08T01:59:45.856Z,8.90
2018-12-08T02:02:14.361Z,8.90
2018-12-08T02:04:42.949Z,8.80
2018-12-08T02:07:11.535Z,8.80
2018-12-08T02:09:40.075Z,8.80
2018-12-08T02:12:08.607Z,8.80
2018-12-08T02:14:37.253Z,8.80
2018-12-08T02:17:06.058Z,8.90
2018-12-08T02:19:34.767Z,8.80
2018-12-08T02:22:04.073Z,8.70
2018-12-08T02:24:32.762Z,8.60
2018-12-08T02:27:01.503Z,8.60
2018-12-08T02:29:30.232Z,8.50
2018-12-08T02:31:58.846Z,8.60
2018-12-08T02:34:27.567Z,8.80
2018-12-08T02:36:56.159Z,8.80
2018-12-08T02:39:24.733Z,8.80
2018-12-08T02:41:53.357Z,8.80
2018-12-08T02:44:22.917Z,8.70
2018-12-08T02:46:51.551Z,8.70
2018-12-08T02:49:20.652Z,8.60
2018-12-08T02:51:52.028Z,8.50
2018-12-08T02:54:20.650Z,8.50
2018-12-08T02:56:49.745Z,8.50
2018-12-08T02:59:18.339Z,8.30
2018-12-08T03:01:47.187Z,8.30
2018-12-08T03:04:16.885Z,8.40
2018-12-08T03:06:45.450Z,8.40
2018-12-08T03:09:14.057Z,8.50
2018-12-08T03:11:42.743Z,8.50
2018-12-08T03:14:11.429Z,8.50
2018-12-08T03:16:40.741Z,8.50
2018-12-08T03:19:09.389Z,8.50
2018-12-08T03:21:38.009Z,8.40
2018-12-08T03:24:06.754Z,8.40
2018-12-08T03:26:35.791Z,8.50
2018-12-08T03:29:04.537Z,8.50
2018-12-08T03:31:33.154Z,8.50
2018-12-08T03:34:01.749Z,8.60
2018-12-08T03:36:30.338Z,8.60
2018-12-08T03:38:59.059Z,8.70
2018-12-08T03:41:27.862Z,8.70
2018-12-08T03:43:56.563Z,8.80
2018-12-08T03:46:25.255Z,8.70
2018-12-08T03:48:53.979Z,8.80
2018-12-08T03:51:22.683Z,8.80
2018-12-08T03:53:51.390Z,8.80
2018-12-08T03:56:20.076Z,8.90
2018-12-08T03:58:48.757Z,8.90
2018-12-08T04:01:17.440Z,8.90
2018-12-08T04:03:46.107Z,8.90
2018-12-08T04:06:14.873Z,9.00
2018-12-08T04:08:43.557Z,8.80
2018-12-08T04:11:12.050Z,8.70
2018-12-08T04:13:40.590Z,8.70
2018-12-08T04:16:09.168Z,8.60
2018-12-08T04:18:37.854Z,8.60
2018-12-08T04:21:06.543Z,8.70
2018-12-08T04:23:35.162Z,8.80
2018-12-08T04:26:03.682Z,8.90
2018-12-08T04:28:32.229Z,9.00
2018-12-08T04:31:00.780Z,9.10
2018-12-08T04:33:30.089Z,9.00
2018-12-08T04:35:58.618Z,8.90
2018-12-08T04:38:27.387Z,8.90
2018-12-08T04:40:56.275Z,8.90
2018-12-08T04:43:24.782Z,8.70
2018-12-08T04:45:54.037Z,8.60
2018-12-08T04:48:23.174Z,8.50
2018-12-08T04:50:52.526Z,8.50
2018-12-08T04:53:21.197Z,8.50
2018-12-08T04:55:49.771Z,8.40
2018-12-08T04:58:19.003Z,8.40
2018-12-08T05:00:48.123Z,8.40
2018-12-08T05:03:16.667Z,8.40
2018-12-08T05:05:45.346Z,8.40
2018-12-08T05:08:14.044Z,8.40
2018-12-08T05:10:42.669Z,8.40
2018-12-08T05:13:11.234Z,8.40
2018-12-08T05:15:39.772Z,8.40
2018-12-08T05:18:08.422Z,8.50
2018-12-08T05:20:37.142Z,8.50
2018-12-08T05:23:05.641Z,8.60
2018-12-08T05:25:34.163Z,8.60
2018-12-08T05:28:02.884Z,8.70
2018-12-08T05:30:31.538Z,8.70
2018-12-08T05:33:00.235Z,8.70
2018-12-08T05:35:28.925Z,8.70
2018-12-08T05:37:57.572Z,8.80
2018-12-08T05:40:26.164Z,8.90
2018-12-08T05:42:54.802Z,9.00
2018-12-08T05:45:23.348Z,9.00
2018-12-08T05:47:51.991Z,9.20
2018-12-08T05:50:20.631Z,9.20
2018-12-08T05:52:49.209Z,9.20
2018-12-08T05:55:17.778Z,9.30
2018-12-08T05:57:46.339Z,9.30
2018-12-08T06:00:15.024Z,9.40
2018-12-08T06:02:43.525Z,9.40
2018-12-08T06:05:12.049Z,9.50
2018-12-08T06:07:40.653Z,9.60
2018-12-08T06:10:09.167Z,9.60
2018-12-08T06:12:37.669Z,9.60
2018-12-08T06:15:06.586Z,9.60
2018-12-08T06:17:35.246Z,9.70
2018-12-08T06:20:04.250Z,9.70
2018-12-08T06:22:32.989Z,9.70
2018-12-08T06:25:01.433Z,9.80
2018-12-08T06:27:41.737Z,9.80
2018-12-08T06:30:10.308Z,9.80
2018-12-08T06:32:38.985Z,9.80
2018-12-08T06:35:07.635Z,9.70
2018-12-08T06:37:36.290Z,9.70
2018-12-08T06:40:06.334Z,9.60
2018-12-08T06:42:35.112Z,9.60
2018-12-08T06:45:03.827Z,9.60
2018-12-08T06:47:32.473Z,9.70
2018-12-08T06:50:00.984Z,9.70
2018-12-08T06:52:29.542Z,9.80
2018-12-08T06:54:58.952Z,9.80
2018-12-08T06:57:58.160Z,9.80
2018-12-08T07:00:26.865Z,9.80
2018-12-08T07:02:55.441Z,9.90
2018-12-08T07:05:24.106Z,9.90
2018-12-08T07:07:52.793Z,9.90
2018-12-08T07:10:21.479Z,10.00
2018-12-08T07:15:49.094Z,10.00
2018-12-08T07:18:17.852Z,10.00
2018-12-08T07:20:46.722Z,10.00
2018-12-08T07:23:15.602Z,9.90
2018-12-08T07:25:44.209Z,9.90
2018-12-08T07:28:12.822Z,9.90
2018-12-08T07:30:41.398Z,9.80
2018-12-08T07:33:10.027Z,9.90
2018-12-08T07:35:38.698Z,10.00
2018-12-08T07:38:07.217Z,9.90
2018-12-08T07:40:36.005Z,9.90
2018-12-08T07:43:04.644Z,10.00
2018-12-08T07:45:33.258Z,10.00
2018-12-08T07:48:02.030Z,9.90
2018-12-08T07:50:30.673Z,9.90
2018-12-08T07:52:59.295Z,9.90
2018-12-08T07:55:28.205Z,9.90
2018-12-08T07:57:56.776Z,9.90
2018-12-08T08:00:25.549Z,9.80
2018-12-08T08:02:54.229Z,9.80
2018-12-08T08:05:22.780Z,9.70
2018-12-08T08:07:51.328Z,9.70
2018-12-08T08:10:20.100Z,9.80
2018-12-08T08:12:48.596Z,9.80
2018-12-08T08:15:17.476Z,9.90
2018-12-08T08:17:46.153Z,10.00
2018-12-08T08:20:14.759Z,10.00
2018-12-08T08:22:43.374Z,10.00
2018-12-08T08:25:12.351Z,10.10
2018-12-08T08:27:40.894Z,10.20
2018-12-08T08:30:11.316Z,10.30
2018-12-08T08:32:39.837Z,10.30
2018-12-08T08:35:08.861Z,10.40
2018-12-08T08:37:37.692Z,10.30
2018-12-08T08:40:08.630Z,10.30
2018-12-08T08:42:37.123Z,10.40
2018-12-08T08:45:06.426Z,10.50
2018-12-08T08:47:35.265Z,10.50
2018-12-08T08:50:05.151Z,10.60
2018-12-08T08:52:34.744Z,10.60
2018-12-08T08:55:03.417Z,10.70
2018-12-08T08:57:32.120Z,10.60
2018-12-08T09:00:00.676Z,10.60
2018-12-08T09:02:29.210Z,10.50
2018-12-08T09:04:57.908Z,10.40
2018-12-08T09:07:26.460Z,10.30
2018-12-08T09:09:55.544Z,10.30
2018-12-08T09:12:24.540Z,10.30
2018-12-08T09:14:53.432Z,10.30
2018-12-08T09:17:22.790Z,10.30
2018-12-08T09:19:51.415Z,10.20
2018-12-08T09:22:20.036Z,10.20
2018-12-08T09:24:48.515Z,10.20
2018-12-08T09:27:17.165Z,10.30
2018-12-08T09:29:45.792Z,10.40
2018-12-08T09:32:15.113Z,10.30
2018-12-08T09:34:43.809Z,10.30
2018-12-08T09:37:12.432Z,10.40
2018-12-08T09:39:41.079Z,10.30
2018-12-08T09:42:09.633Z,10.30
2018-12-08T09:44:38.184Z,10.40
2018-12-08T09:47:06.802Z,10.40
2018-12-08T09:49:35.444Z,10.30
2018-12-08T09:52:04.001Z,10.30
2018-12-08T09:54:32.673Z,10.40
2018-12-08T09:57:01.189Z,10.40
2018-12-08T09:59:29.733Z,10.50
2018-12-08T10:01:58.422Z,10.60
2018-12-08T10:04:26.981Z,10.70
2018-12-08T10:06:55.524Z,10.80
2018-12-08T10:09:24.033Z,10.80
2018-12-08T10:11:52.631Z,10.90
2018-12-08T10:14:21.341Z,10.90
2018-12-08T10:16:49.923Z,11.00
2018-12-08T10:19:18.460Z,10.90
2018-12-08T10:21:47.152Z,11.00
2018-12-08T10:24:15.886Z,10.90
2018-12-08T10:26:44.532Z,10.90
2018-12-08T10:29:13.126Z,10.90
2018-12-08T10:31:41.901Z,10.90
2018-12-08T10:34:10.441Z,11.00
2018-12-08T10:36:39.070Z,11.10
2018-12-08T10:39:08.855Z,11.10
2018-12-08T10:41:37.448Z,11.10
2018-12-08T10:44:06.033Z,11.20
2018-12-08T10:46:34.767Z,11.20
2018-12-08T10:49:03.530Z,11.30
2018-12-08T10:51:32.310Z,11.30
2018-12-08T10:54:00.874Z,11.40
2018-12-08T10:56:29.637Z,11.40
2018-12-08T10:58:58.839Z,11.40
2018-12-08T11:01:32.877Z,11.40
2018-12-08T11:04:01.612Z,11.50
2018-12-08T11:06:30.371Z,11.60
2018-12-08T11:08:59.034Z,11.70
2018-12-08T11:11:27.814Z,11.70
2018-12-08T11:13:56.356Z,11.70
2018-12-08T11:16:24.919Z,11.80
2018-12-08T11:18:53.579Z,11.80
2018-12-08T11:21:22.119Z,11.80
2018-12-08T11:23:50.789Z,11.90
2018-12-08T11:26:19.304Z,11.90
2018-12-08T11:28:47.963Z,12.00
2018-12-08T11:31:16.699Z,12.10
2018-12-08T11:33:45.233Z,12.10
2018-12-08T11:36:13.989Z,12.10
2018-12-08T11:38:42.473Z,12.20
2018-12-08T11:41:11.081Z,12.20
2018-12-08T11:43:39.892Z,12.20
2018-12-08T11:46:08.387Z,12.20
2018-12-08T11:48:36.946Z,12.20
2018-12-08T11:51:06.058Z,12.20
2018-12-08T11:53:34.618Z,12.20
2018-12-08T11:56:03.226Z,12.30
2018-12-08T11:58:31.825Z,12.30
2018-12-08T12:01:00.467Z,12.40
2018-12-08T12:03:28.978Z,12.30
2018-12-08T12:05:57.629Z,12.30
2018-12-08T12:08:26.154Z,12.50
2018-12-08T12:10:54.642Z,12.50
2018-12-08T12:13:23.397Z,12.40
2018-12-08T12:15:52.071Z,12.40
2018-12-08T12:18:20.537Z,12.40
2018-12-08T12:20:49.174Z,12.40
2018-12-08T12:23:17.792Z,12.40
2018-12-08T12:25:46.841Z,12.50
2018-12-08T12:28:15.411Z,12.50
2018-12-08T12:30:44.051Z,12.50
2018-12-08T12:33:12.677Z,12.40
2018-12-08T12:35:41.319Z,12.40
2018-12-08T12:38:10.079Z,12.50
2018-12-08T12:40:38.647Z,12.50
2018-12-08T12:43:07.176Z,12.50
2018-12-08T12:45:35.725Z,12.50
2018-12-08T12:48:04.450Z,12.40
2018-12-08T12:50:33.670Z,12.40
2018-12-08T12:53:02.245Z,12.40
2018-12-08T12:55:30.916Z,12.50
2018-12-08T12:57:59.715Z,12.50
2018-12-08T13:00:28.798Z,12.50
2018-12-08T13:02:57.734Z,12.60
2018-12-08T13:05:26.426Z,12.60
2018-12-08T13:07:55.072Z,12.60
2018-12-08T13:10:23.972Z,12.60
2018-12-08T13:12:52.600Z,12.60
2018-12-08T13:15:21.332Z,12.50
2018-12-08T13:17:49.868Z,12.50
2018-12-08T13:20:19.108Z,12.50
2018-12-08T13:22:47.761Z,12.50
2018-12-08T13:25:22.361Z,12.50
2018-12-08T13:27:51.074Z,12.50
2018-12-08T13:30:19.897Z,12.40
2018-12-08T13:32:48.528Z,12.30
2018-12-08T13:35:28.562Z,12.30
2018-12-08T13:37:57.439Z,12.30
2018-12-08T13:40:26.316Z,12.30
2018-12-08T13:42:55.482Z,12.40
2018-12-08T13:45:24.022Z,12.40
2018-12-08T13:47:52.765Z,12.40
2018-12-08T13:50:21.799Z,12.40
2018-12-08T13:52:50.327Z,12.30
2018-12-08T13:55:18.845Z,12.30
2018-12-08T13:57:47.461Z,12.40
2018-12-08T14:00:16.205Z,12.40
2018-12-08T14:02:45.239Z,12.30
2018-12-08T14:05:13.918Z,12.30
2018-12-08T14:07:42.543Z,12.30
2018-12-08T14:10:11.394Z,12.30
2018-12-08T14:12:39.913Z,12.30
2018-12-08T14:15:08.635Z,12.30
2018-12-08T14:17:37.218Z,12.20
2018-12-08T14:20:36.990Z,12.20
2018-12-08T14:23:05.668Z,12.20
2018-12-08T14:25:34.278Z,12.20
2018-12-08T14:28:02.996Z,12.20
2018-12-08T14:30:31.558Z,12.20
2018-12-08T14:33:00.163Z,12.20
2018-12-08T14:35:28.671Z,12.10
2018-12-08T14:37:57.214Z,12.10
2018-12-08T14:40:25.803Z,12.10
2018-12-08T14:42:54.524Z,12.00
2018-12-08T14:45:23.101Z,12.00
2018-12-08T14:47:51.800Z,11.90
2018-12-08T14:50:20.454Z,11.90
2018-12-08T14:52:48.983Z,11.90
2018-12-08T14:55:17.521Z,11.80
2018-12-08T14:57:46.258Z,11.80
2018-12-08T15:00:15.268Z,11.80
2018-12-08T15:02:44.146Z,11.70
2018-12-08T15:05:13.936Z,11.70
2018-12-08T15:07:42.800Z,11.60
2018-12-08T15:10:12.741Z,11.60
2018-12-08T15:12:41.849Z,11.50
2018-12-08T15:15:11.205Z,11.60
2018-12-08T15:17:40.539Z,11.50
2018-12-08T15:20:10.068Z,11.40
2018-12-08T15:22:38.982Z,11.40
2018-12-08T15:25:09.307Z,11.40
2018-12-08T15:27:38.179Z,11.30
2018-12-08T15:30:08.443Z,11.20
2018-12-08T15:32:36.991Z,11.30
2018-12-08T15:35:08.115Z,11.20
2018-12-08T15:37:36.668Z,11.20
2018-12-08T15:40:06.319Z,11.20
2018-12-08T15:42:34.788Z,11.20
2018-12-08T15:45:03.706Z,11.10
2018-12-08T15:47:32.224Z,11.10
2018-12-08T15:50:00.993Z,11.10
2018-12-08T15:52:29.614Z,11.10
2018-12-08T15:54:58.334Z,11.00
2018-12-08T15:57:27.433Z,11.00
2018-12-08T15:59:55.931Z,11.00
2018-12-08T16:02:24.633Z,11.00
2018-12-08T16:04:53.526Z,10.90
2018-12-08T16:07:22.205Z,10.90
2018-12-08T16:09:50.845Z,10.90
2018-12-08T16:12:20.302Z,10.80
2018-12-08T16:14:49.001Z,10.80
2018-12-08T16:17:18.060Z,10.80
2018-12-08T16:19:46.970Z,10.80
2018-12-08T16:22:15.593Z,10.70
2018-12-08T16:24:44.096Z,10.70
2018-12-08T16:27:12.677Z,10.70
2018-12-08T16:29:41.330Z,10.70
2018-12-08T16:32:10.045Z,10.60
2018-12-08T16:34:38.744Z,10.60
2018-12-08T16:37:07.222Z,10.60
2018-12-08T16:39:35.992Z,10.50
2018-12-08T16:42:04.594Z,10.50
2018-12-08T16:44:33.185Z,10.40
2018-12-08T16:47:01.916Z,10.40
2018-12-08T16:49:30.665Z,10.40
2018-12-08T16:51:59.422Z,10.30
2018-12-08T16:54:28.213Z,10.40
2018-12-08T16:56:56.872Z,10.30
2018-12-08T16:59:25.438Z,10.30
2018-12-08T17:01:54.875Z,10.20
2018-12-08T17:04:23.585Z,10.20
2018-12-08T17:06:52.147Z,10.20
2018-12-08T17:09:20.797Z,10.20
2018-12-08T17:11:49.366Z,10.20
2018-12-08T17:14:17.858Z,10.20
2018-12-08T17:16:47.248Z,10.10
2018-12-08T17:19:15.775Z,10.10
2018-12-08T17:21:44.312Z,10.00
2018-12-08T17:24:13.040Z,10.10
2018-12-08T17:26:41.512Z,10.00
2018-12-08T17:29:10.204Z,10.00
2018-12-08T17:31:38.844Z,10.00
2018-12-08T17:34:07.439Z,9.90
2018-12-08T17:36:36.090Z,9.80
2018-12-08T17:39:06.488Z,9.80
2018-12-08T17:41:35.077Z,9.80
2018-12-08T17:44:03.766Z,9.60
2018-12-08T17:46:32.497Z,9.70
2018-12-08T17:49:01.157Z,9.70
2018-12-08T17:51:29.636Z,9.70
2018-12-08T17:54:00.397Z,9.70
2018-12-08T17:56:28.896Z,9.60
2018-12-08T17:58:57.558Z,9.70
2018-12-08T18:01:26.185Z,9.70
2018-12-08T18:03:54.819Z,9.60
2018-12-08T18:06:23.624Z,9.60
2018-12-08T18:08:52.155Z,9.70
2018-12-08T18:11:20.693Z,9.60
2018-12-08T18:13:49.263Z,9.60
2018-12-08T18:16:17.950Z,9.70
2018-12-08T18:18:46.585Z,9.70
2018-12-08T18:21:15.474Z,9.60
2018-12-08T18:23:44.068Z,9.60
2018-12-08T18:26:12.742Z,9.60
2018-12-08T18:28:41.325Z,9.60
2018-12-08T18:31:10.181Z,9.60
2018-12-08T18:33:38.917Z,9.60
2018-12-08T18:36:07.658Z,9.50
2018-12-08T18:38:36.463Z,9.50
2018-12-08T18:41:05.391Z,9.50
2018-12-08T18:43:34.206Z,9.50
2018-12-08T18:46:03.129Z,9.60
2018-12-08T18:48:32.066Z,9.50
2018-12-08T18:51:00.914Z,9.40
2018-12-08T18:53:29.567Z,9.40
2018-12-08T18:55:58.268Z,9.40
2018-12-08T18:58:27.065Z,9.40
2018-12-08T19:00:55.744Z,9.20
2018-12-08T19:03:24.569Z,9.40
2018-12-08T19:05:53.152Z,9.30
2018-12-08T19:08:21.806Z,9.30
2018-12-08T19:10:50.478Z,9.20
2018-12-08T19:13:19.005Z,9.30
2018-12-08T19:15:47.526Z,9.30
2018-12-08T19:18:16.203Z,9.30
2018-12-08T19:20:44.701Z,9.30
2018-12-08T19:23:13.396Z,9.30
2018-12-08T19:25:42.216Z,9.30
2018-12-08T19:28:10.695Z,9.30
2018-12-08T19:30:39.279Z,9.30
2018-12-08T19:33:14.353Z,9.20
2018-12-08T19:35:38.723Z,9.30
2018-12-08T19:38:07.484Z,9.30
2018-12-08T19:40:36.196Z,9.20
2018-12-08T19:43:04.994Z,9.20
2018-12-08T19:45:33.707Z,9.10
2018-12-08T19:48:02.409Z,9.10
2018-12-08T19:50:31.147Z,9.20
2018-12-08T19:53:00.041Z,9.20
2018-12-08T19:55:28.676Z,9.20
2018-12-08T19:57:57.323Z,9.20
2018-12-08T20:00:26.025Z,9.20
2018-12-08T20:02:54.655Z,9.10
2018-12-08T20:05:23.379Z,9.10
2018-12-08T20:07:52.051Z,9.10
2018-12-08T20:10:20.615Z,9.10
2018-12-08T20:12:49.384Z,9.00
2018-12-08T20:15:17.938Z,9.10
2018-12-08T20:17:46.729Z,9.10
2018-12-08T20:20:15.211Z,9.10
2018-12-08T20:22:43.845Z,9.10
2018-12-08T20:25:12.561Z,9.20
2018-12-08T20:27:41.064Z,9.20
2018-12-08T20:30:09.962Z,9.10
2018-12-08T20:32:38.522Z,9.10
2018-12-08T20:35:07.394Z,9.10
2018-12-08T20:37:36.049Z,9.10
2018-12-08T20:40:05.073Z,9.00
2018-12-08T20:42:33.633Z,8.90
2018-12-08T20:45:02.378Z,8.80
2018-12-08T20:47:31.126Z,8.80
2018-12-08T20:49:59.689Z,8.80
2018-12-08T20:52:28.243Z,8.70
2018-12-08T20:54:57.086Z,8.70
2018-12-08T20:57:25.616Z,8.70
2018-12-08T20:59:54.770Z,8.70
2018-12-08T21:02:23.471Z,8.70
2018-12-08T21:04:52.052Z,8.60
2018-12-08T21:07:20.817Z,8.50
2018-12-08T21:09:49.413Z,8.60
2018-12-08T21:12:18.194Z,8.50
2018-12-08T21:14:46.893Z,8.50
2018-12-08T21:17:15.442Z,8.50
2018-12-08T21:19:44.127Z,8.50
2018-12-08T21:22:12.691Z,8.50
2018-12-08T21:24:41.238Z,8.50
2018-12-08T21:27:09.836Z,8.50
2018-12-08T21:29:38.382Z,8.40
2018-12-08T21:32:07.186Z,8.40
2018-12-08T21:34:35.819Z,8.40
2018-12-08T21:37:04.638Z,8.30
2018-12-08T21:39:33.208Z,8.20
2018-12-08T21:42:02.051Z,8.10
2018-12-08T21:44:30.680Z,8.00
2018-12-08T21:47:00.725Z,8.10
2018-12-08T21:49:29.568Z,8.10
2018-12-08T21:51:58.074Z,8.20
2018-12-08T21:54:26.532Z,8.20
2018-12-08T21:56:55.214Z,8.20
2018-12-08T21:59:23.788Z,8.20
2018-12-08T22:01:52.465Z,8.30
2018-12-08T22:04:21.330Z,8.30
2018-12-08T22:06:49.831Z,8.30
2018-12-08T22:09:18.628Z,8.40
2018-12-08T22:11:47.200Z,8.40
2018-12-08T22:14:15.702Z,8.30
2018-12-08T22:16:44.514Z,8.20
2018-12-08T22:19:13.217Z,8.20
2018-12-08T22:21:41.759Z,8.30
2018-12-08T22:24:10.485Z,8.20
2018-12-08T22:26:39.317Z,8.30
2018-12-08T22:29:07.895Z,8.30
2018-12-08T22:31:36.480Z,8.20
2018-12-08T22:34:05.191Z,8.20
2018-12-08T22:36:33.970Z,8.20
2018-12-08T22:39:02.647Z,8.20
2018-12-08T22:41:31.468Z,8.20
2018-12-08T22:44:00.191Z,8.10
2018-12-08T22:46:28.947Z,8.00
2018-12-08T22:48:57.673Z,8.00
2018-12-08T22:51:26.140Z,8.00
2018-12-08T22:53:54.986Z,7.90
2018-12-08T22:56:23.947Z,7.90
2018-12-08T22:58:52.565Z,7.90
2018-12-08T23:01:52.436Z,7.90
2018-12-08T23:04:21.597Z,8.00
2018-12-08T23:07:01.969Z,8.00
2018-12-08T23:09:30.766Z,8.00
2018-12-08T23:11:59.439Z,8.00
2018-12-08T23:14:29.391Z,8.00
2018-12-08T23:16:58.179Z,7.90
2018-12-08T23:19:26.944Z,7.90
2018-12-08T23:21:55.575Z,7.80
2018-12-08T23:24:24.311Z,7.80
2018-12-08T23:26:53.252Z,7.80
2018-12-08T23:29:22.236Z,7.90
2018-12-08T23:31:50.841Z,8.00
2018-12-08T23:34:19.650Z,8.20
2018-12-08T23:36:48.443Z,8.10
2018-12-08T23:39:17.011Z,8.10
2018-12-08T23:41:45.591Z,8.00
2018-12-08T23:44:14.367Z,8.10
2018-12-08T23:46:43.078Z,8.10
2018-12-08T23:49:12.036Z,8.00
2018-12-08T23:51:40.630Z,8.00
2018-12-08T23:54:09.257Z,7.90
2018-12-08T23:56:37.843Z,7.80
2018-12-08T23:59:06.418Z,7.90
